createdAt,value
2023-03-28T00:00:14.762Z,54.50
2023-03-28T00:02:41.359Z,54.60
2023-03-28T00:05:08.055Z,54.30
2023-03-28T00:07:34.820Z,54.60
2023-03-28T00:10:01.757Z,54.90
2023-03-28T00:12:28.349Z,54.90
2023-03-28T00:14:57.457Z,54.80
2023-03-28T00:17:24.502Z,54.60
2023-03-28T00:19:53.343Z,55.10
2023-03-28T00:22:20.822Z,54.70
2023-03-28T00:24:48.713Z,54.50
2023-03-28T00:27:15.894Z,54.60
2023-03-28T00:29:42.484Z,54.70
2023-03-28T00:32:09.279Z,54.70
2023-03-28T00:34:35.855Z,54.40
2023-03-28T00:37:02.604Z,54.50
2023-03-28T00:39:29.588Z,54.40
2023-03-28T00:41:57.268Z,54.50
2023-03-28T00:44:42.338Z,54.60
2023-03-28T00:47:15.248Z,53.00
2023-03-28T00:49:42.416Z,54.20
2023-03-28T00:52:10.171Z,54.30
2023-03-28T00:54:39.551Z,54.30
2023-03-28T00:57:07.535Z,53.90
2023-03-28T00:59:35.071Z,53.70
2023-03-28T01:02:01.792Z,53.80
2023-03-28T01:04:33.289Z,53.80
2023-03-28T01:07:00.119Z,53.70
2023-03-28T01:09:26.904Z,53.70
2023-03-28T01:11:54.106Z,53.80
2023-03-28T01:14:22.455Z,53.90
2023-03-28T01:16:49.310Z,54.00
2023-03-28T01:19:15.797Z,54.20
2023-03-28T01:21:42.250Z,54.20
2023-03-28T01:24:27.518Z,54.20
2023-03-28T01:26:54.043Z,53.10
2023-03-28T01:29:39.726Z,54.40
2023-03-28T01:32:25.147Z,53.20
2023-03-28T01:35:08.854Z,53.30
2023-03-28T01:37:44.085Z,53.20
2023-03-28T01:40:11.276Z,53.20
2023-03-28T01:42:51.022Z,54.70
2023-03-28T01:45:20.581Z,53.30
2023-03-28T01:47:56.414Z,53.30
2023-03-28T01:50:23.040Z,53.30
2023-03-28T01:53:08.405Z,54.70
2023-03-28T01:55:41.548Z,53.30
2023-03-28T01:58:14.828Z,54.80
2023-03-28T02:00:46.039Z,53.50
2023-03-28T02:03:20.275Z,55.00
2023-03-28T02:05:48.333Z,53.60
2023-03-28T02:08:15.462Z,55.10
2023-03-28T02:10:43.614Z,55.10
2023-03-28T02:13:12.499Z,55.10
2023-03-28T02:15:41.169Z,55.10
2023-03-28T02:18:11.089Z,55.20
2023-03-28T02:20:38.102Z,54.80
2023-03-28T02:23:07.769Z,54.90
2023-03-28T02:25:34.603Z,53.40
2023-03-28T02:28:05.259Z,55.10
2023-03-28T02:30:31.970Z,55.20
2023-03-28T02:33:00.422Z,55.00
2023-03-28T02:35:29.977Z,54.90
2023-03-28T02:37:56.517Z,55.20
2023-03-28T02:40:23.042Z,55.30
2023-03-28T02:43:02.440Z,55.20
2023-03-28T02:45:47.557Z,53.70
2023-03-28T02:48:32.930Z,53.70
2023-03-28T02:50:59.830Z,53.50
2023-03-28T02:53:35.437Z,54.90
2023-03-28T02:56:17.035Z,53.60
2023-03-28T02:58:49.358Z,53.70
2023-03-28T03:01:15.899Z,53.80
2023-03-28T03:03:43.620Z,55.30
2023-03-28T03:06:10.500Z,55.20
2023-03-28T03:08:37.022Z,55.10
2023-03-28T03:11:03.540Z,55.10
2023-03-28T03:13:30.155Z,55.00
2023-03-28T03:15:56.747Z,54.90
2023-03-28T03:18:23.747Z,54.80
2023-03-28T03:20:50.344Z,54.80
2023-03-28T03:23:17.018Z,54.70
2023-03-28T03:25:43.597Z,54.90
2023-03-28T03:28:10.749Z,55.10
2023-03-28T03:30:37.304Z,54.90
2023-03-28T03:33:05.509Z,54.90
2023-03-28T03:35:35.437Z,55.00
2023-03-28T03:38:02.692Z,54.70
2023-03-28T03:40:29.347Z,55.30
2023-03-28T03:42:55.899Z,55.10
2023-03-28T03:45:22.524Z,55.30
2023-03-28T03:47:49.141Z,55.50
2023-03-28T03:50:15.780Z,55.30
2023-03-28T03:52:42.289Z,55.20
2023-03-28T03:55:08.950Z,55.10
2023-03-28T03:57:35.829Z,54.80
2023-03-28T04:00:09.458Z,55.20
2023-03-28T04:02:36.081Z,55.20
2023-03-28T04:05:03.074Z,55.10
2023-03-28T04:07:29.610Z,54.60
2023-03-28T04:09:56.858Z,54.50
2023-03-28T04:12:23.374Z,54.60
2023-03-28T04:14:49.898Z,55.10
2023-03-28T04:17:17.655Z,55.40
2023-03-28T04:19:45.472Z,55.40
2023-03-28T04:22:12.977Z,55.10
2023-03-28T04:24:44.610Z,55.10
2023-03-28T04:27:11.591Z,54.90
2023-03-28T04:29:39.201Z,54.80
2023-03-28T04:32:06.487Z,54.90
2023-03-28T04:34:33.818Z,54.90
2023-03-28T04:37:01.693Z,55.10
2023-03-28T04:39:32.627Z,55.00
2023-03-28T04:42:01.921Z,55.10
2023-03-28T04:44:29.359Z,54.80
2023-03-28T04:46:56.566Z,54.80
2023-03-28T04:49:25.511Z,54.90
2023-03-28T04:51:52.061Z,55.00
2023-03-28T04:54:18.989Z,55.60
2023-03-28T04:56:47.932Z,55.50
2023-03-28T04:59:14.866Z,55.40
2023-03-28T05:01:41.963Z,55.70
2023-03-28T05:04:08.473Z,55.20
2023-03-28T05:06:35.788Z,55.10
2023-03-28T05:09:02.322Z,54.90
2023-03-28T05:11:29.342Z,53.50
2023-03-28T05:13:56.346Z,54.70
2023-03-28T05:16:22.850Z,55.40
2023-03-28T05:18:49.381Z,55.60
2023-03-28T05:21:16.267Z,55.50
2023-03-28T05:23:42.741Z,55.70
2023-03-28T05:26:09.242Z,56.30
2023-03-28T05:28:35.787Z,56.70
2023-03-28T05:31:02.496Z,57.10
2023-03-28T05:33:30.156Z,57.00
2023-03-28T05:35:56.736Z,56.60
2023-03-28T05:38:23.381Z,56.60
2023-03-28T05:40:49.877Z,56.50
2023-03-28T05:43:16.608Z,56.70
2023-03-28T05:45:43.492Z,56.70
2023-03-28T05:48:10.262Z,57.00
2023-03-28T05:50:36.910Z,57.00
2023-03-28T05:53:03.413Z,56.60
2023-03-28T05:55:30.064Z,56.60
2023-03-28T05:57:57.391Z,56.80
2023-03-28T06:00:24.397Z,57.00
2023-03-28T06:02:51.749Z,57.00
2023-03-28T06:05:18.836Z,57.10
2023-03-28T06:07:45.479Z,57.00
2023-03-28T06:10:13.004Z,57.10
2023-03-28T06:12:40.188Z,57.20
2023-03-28T06:15:07.113Z,57.10
2023-03-28T06:17:34.139Z,56.40
2023-03-28T06:20:00.750Z,57.10
2023-03-28T06:22:27.331Z,57.00
2023-03-28T06:24:53.886Z,57.00
2023-03-28T06:27:20.551Z,56.90
2023-03-28T06:29:47.032Z,56.60
2023-03-28T06:32:15.215Z,57.00
2023-03-28T06:34:42.110Z,56.50
2023-03-28T06:37:08.747Z,56.40
2023-03-28T06:39:35.357Z,56.50
2023-03-28T06:42:03.301Z,56.70
2023-03-28T06:44:30.662Z,56.50
2023-03-28T06:46:57.430Z,56.60
2023-03-28T06:49:24.148Z,56.60
2023-03-28T06:51:51.432Z,56.60
2023-03-28T06:54:17.972Z,56.50
2023-03-28T06:56:44.531Z,56.40
2023-03-28T06:59:11.060Z,56.60
2023-03-28T07:01:40.426Z,56.60
2023-03-28T07:04:07.040Z,56.50
2023-03-28T07:06:33.738Z,56.40
2023-03-28T07:09:01.086Z,56.50
2023-03-28T07:11:27.617Z,56.20
2023-03-28T07:13:54.088Z,56.30
2023-03-28T07:16:20.916Z,56.30
2023-03-28T07:18:47.523Z,56.20
2023-03-28T07:21:18.252Z,56.50
2023-03-28T07:23:44.902Z,54.90
2023-03-28T07:26:12.472Z,56.00
2023-03-28T07:28:39.078Z,56.00
2023-03-28T07:31:05.961Z,56.50
2023-03-28T07:33:37.235Z,55.90
2023-03-28T07:36:08.668Z,56.10
2023-03-28T07:38:35.433Z,54.80
2023-03-28T07:41:02.422Z,55.90
2023-03-28T07:43:29.029Z,55.90
2023-03-28T07:46:02.577Z,55.80
2023-03-28T07:48:29.455Z,54.70
2023-03-28T07:50:55.969Z,55.60
2023-03-28T07:53:22.509Z,55.50
2023-03-28T07:55:55.235Z,55.10
2023-03-28T07:58:22.920Z,55.00
2023-03-28T08:00:49.795Z,55.00
2023-03-28T08:03:17.583Z,55.00
2023-03-28T08:05:51.384Z,55.00
2023-03-28T08:08:19.237Z,55.00
2023-03-28T08:10:46.694Z,55.00
2023-03-28T08:13:13.492Z,55.10
2023-03-28T08:15:40.352Z,55.10
2023-03-28T08:18:07.134Z,55.20
2023-03-28T08:20:33.788Z,55.20
2023-03-28T08:23:01.188Z,55.30
2023-03-28T08:25:27.706Z,55.30
2023-03-28T08:27:54.442Z,55.40
2023-03-28T08:30:20.968Z,55.30
2023-03-28T08:32:48.964Z,55.50
2023-03-28T08:35:15.777Z,55.40
2023-03-28T08:37:42.303Z,55.40
2023-03-28T08:40:13.972Z,55.40
2023-03-28T08:42:43.268Z,55.60
2023-03-28T08:45:21.762Z,54.50
2023-03-28T08:48:08.631Z,54.50
2023-03-28T08:50:38.934Z,55.80
2023-03-28T08:53:06.102Z,55.80
2023-03-28T08:55:36.599Z,55.80
2023-03-28T08:58:03.298Z,55.80
2023-03-28T09:00:34.339Z,55.80
2023-03-28T09:03:01.104Z,54.40
2023-03-28T09:05:27.662Z,56.10
2023-03-28T09:07:57.004Z,56.00
2023-03-28T09:10:43.665Z,54.80
2023-03-28T09:13:26.497Z,54.70
2023-03-28T09:16:03.040Z,54.60
2023-03-28T09:18:52.034Z,54.80
2023-03-28T09:21:22.798Z,56.20
2023-03-28T09:24:04.422Z,56.20
2023-03-28T09:26:34.268Z,55.10
2023-03-28T09:29:13.063Z,56.60
2023-03-28T09:31:47.101Z,54.80
2023-03-28T09:34:19.989Z,54.80
2023-03-28T09:36:49.832Z,54.90
2023-03-28T09:39:22.690Z,56.10
2023-03-28T09:41:52.522Z,54.80
2023-03-28T09:44:21.334Z,56.50
2023-03-28T09:46:48.692Z,56.40
2023-03-28T09:49:20.143Z,56.30
2023-03-28T09:51:46.751Z,56.30
2023-03-28T09:54:13.484Z,56.30
2023-03-28T09:56:41.663Z,56.30
2023-03-28T09:59:21.320Z,56.40
2023-03-28T10:01:50.504Z,55.10
2023-03-28T10:04:17.093Z,56.60
2023-03-28T10:06:44.600Z,56.30
2023-03-28T10:09:22.283Z,55.80
2023-03-28T10:11:48.870Z,54.40
2023-03-28T10:14:34.036Z,55.40
2023-03-28T10:17:08.011Z,54.40
2023-03-28T10:19:37.233Z,54.70
2023-03-28T10:22:08.191Z,55.80
2023-03-28T10:24:34.977Z,54.90
2023-03-28T10:27:13.709Z,56.00
2023-03-28T10:29:40.836Z,54.90
2023-03-28T10:32:11.167Z,56.10
2023-03-28T10:34:37.720Z,56.10
2023-03-28T10:37:21.361Z,56.30
2023-03-28T10:39:57.754Z,56.40
2023-03-28T10:42:24.380Z,56.00
2023-03-28T10:44:58.877Z,56.00
2023-03-28T10:47:25.436Z,56.20
2023-03-28T10:49:53.463Z,56.20
2023-03-28T10:52:22.883Z,56.20
2023-03-28T10:54:55.186Z,54.80
2023-03-28T10:57:21.761Z,56.00
2023-03-28T10:59:54.706Z,55.90
2023-03-28T11:02:23.938Z,54.50
2023-03-28T11:04:55.843Z,54.70
2023-03-28T11:07:44.600Z,54.60
2023-03-28T11:10:17.206Z,54.60
2023-03-28T11:13:05.052Z,55.90
2023-03-28T11:15:31.695Z,55.90
2023-03-28T11:18:07.345Z,55.80
2023-03-28T11:20:52.591Z,54.50
2023-03-28T11:23:42.249Z,54.60
2023-03-28T11:26:16.962Z,54.70
2023-03-28T11:28:56.020Z,54.80
2023-03-28T11:31:26.862Z,54.70
2023-03-28T11:33:53.417Z,55.90
2023-03-28T11:36:22.813Z,55.60
2023-03-28T11:38:52.099Z,55.90
2023-03-28T11:41:24.250Z,56.10
2023-03-28T11:43:50.812Z,56.00
2023-03-28T11:46:23.303Z,55.90
2023-03-28T11:49:13.286Z,54.50
2023-03-28T11:51:54.165Z,54.40
2023-03-28T11:54:39.084Z,54.50
2023-03-28T11:57:08.286Z,54.40
2023-03-28T11:59:44.039Z,55.90
2023-03-28T12:02:35.637Z,54.30
2023-03-28T12:05:11.128Z,54.80
2023-03-28T12:07:40.985Z,54.20
2023-03-28T12:10:14.682Z,55.50
2023-03-28T12:12:55.566Z,55.40
2023-03-28T12:15:26.183Z,54.30
2023-03-28T12:17:56.772Z,55.10
2023-03-28T12:20:30.826Z,55.40
2023-03-28T12:23:01.539Z,55.40
2023-03-28T12:25:33.402Z,55.40
2023-03-28T12:28:12.663Z,55.40
2023-03-28T12:30:42.946Z,54.10
2023-03-28T12:33:13.042Z,55.40
2023-03-28T12:35:55.333Z,54.20
2023-03-28T12:38:26.494Z,54.10
2023-03-28T12:40:54.788Z,55.40
2023-03-28T12:43:24.737Z,55.60
2023-03-28T12:45:53.751Z,55.50
2023-03-28T12:48:43.641Z,55.80
2023-03-28T12:51:16.467Z,54.50
2023-03-28T12:53:45.248Z,54.50
2023-03-28T12:56:13.370Z,55.90
2023-03-28T12:58:40.197Z,55.90
2023-03-28T13:01:25.759Z,56.00
2023-03-28T13:04:04.130Z,54.50
2023-03-28T13:06:49.845Z,54.60
2023-03-28T13:09:34.728Z,54.40
2023-03-28T13:12:06.480Z,54.40
2023-03-28T13:14:40.788Z,55.80
2023-03-28T13:17:21.549Z,54.30
2023-03-28T13:20:09.557Z,54.30
2023-03-28T13:22:57.926Z,54.30
2023-03-28T13:25:26.227Z,54.30
2023-03-28T13:27:54.478Z,56.20
2023-03-28T13:30:26.128Z,56.40
2023-03-28T13:32:54.325Z,56.30
2023-03-28T13:35:35.519Z,56.80
2023-03-28T13:38:31.525Z,54.80
2023-03-28T13:40:59.480Z,54.80
2023-03-28T13:43:39.036Z,56.30
2023-03-28T13:46:19.081Z,54.90
2023-03-28T13:48:54.402Z,54.90
2023-03-28T13:51:25.094Z,54.80
2023-03-28T13:53:51.755Z,56.20
2023-03-28T13:56:23.850Z,56.50
2023-03-28T13:58:52.088Z,54.90
2023-03-28T14:01:27.135Z,56.30
2023-03-28T14:03:54.681Z,56.20
2023-03-28T14:06:22.957Z,56.20
2023-03-28T14:08:50.925Z,56.50
2023-03-28T14:11:19.573Z,56.50
2023-03-28T14:13:47.174Z,56.40
2023-03-28T14:16:14.257Z,56.60
2023-03-28T14:18:41.868Z,56.70
2023-03-28T14:21:08.461Z,56.30
2023-03-28T14:23:36.592Z,56.50
2023-03-28T14:26:08.265Z,56.40
2023-03-28T14:28:39.785Z,54.80
2023-03-28T14:31:06.526Z,56.40
2023-03-28T14:33:37.020Z,56.20
2023-03-28T14:36:04.363Z,56.70
2023-03-28T14:38:40.208Z,56.50
2023-03-28T14:41:06.808Z,56.90
2023-03-28T14:43:33.567Z,56.20
2023-03-28T14:46:02.924Z,56.50
2023-03-28T14:48:29.841Z,56.50
2023-03-28T14:50:56.782Z,42.90
2023-03-28T14:53:28.015Z,44.30
2023-03-28T14:55:58.757Z,47.40
2023-03-28T14:58:27.442Z,49.60
2023-03-28T15:00:55.728Z,49.50
2023-03-28T15:03:23.982Z,49.40
2023-03-28T15:05:51.785Z,51.00
2023-03-28T15:08:23.749Z,52.30
2023-03-28T15:10:52.479Z,52.40
2023-03-28T15:13:23.361Z,52.80
2023-03-28T15:15:50.234Z,52.90
2023-03-28T15:18:19.063Z,52.90
2023-03-28T15:20:50.787Z,53.10
2023-03-28T15:23:39.827Z,53.20
2023-03-28T15:26:12.990Z,51.30
2023-03-28T15:28:39.878Z,51.30
2023-03-28T15:31:08.169Z,53.00
2023-03-28T15:33:34.901Z,52.80
2023-03-28T15:36:06.082Z,53.00
2023-03-28T15:38:36.971Z,51.60
2023-03-28T15:41:42.274Z,53.30
2023-03-28T15:44:10.401Z,51.80
2023-03-28T15:46:37.118Z,53.80
2023-03-28T15:49:05.266Z,53.90
2023-03-28T15:51:35.907Z,54.00
2023-03-28T15:54:02.451Z,54.20
2023-03-28T15:56:30.896Z,53.70
2023-03-28T15:59:10.357Z,53.90
2023-03-28T16:01:36.956Z,52.40
2023-03-28T16:04:23.720Z,54.20
2023-03-28T16:06:53.759Z,52.60
2023-03-28T16:09:21.723Z,54.30
2023-03-28T16:12:02.014Z,54.60
2023-03-28T16:14:28.635Z,52.80
2023-03-28T16:16:56.305Z,54.70
2023-03-28T16:19:24.817Z,54.20
2023-03-28T16:21:51.441Z,54.50
2023-03-28T16:24:19.624Z,54.50
2023-03-28T16:26:47.002Z,54.50
2023-03-28T16:29:13.610Z,54.50
2023-03-28T16:31:40.956Z,54.50
2023-03-28T16:34:09.799Z,54.20
2023-03-28T16:36:37.225Z,54.00
2023-03-28T16:39:05.174Z,54.00
2023-03-28T16:41:32.015Z,54.20
2023-03-28T16:43:58.525Z,54.50
2023-03-28T16:46:25.154Z,54.50
2023-03-28T16:48:52.112Z,51.00
2023-03-28T16:51:18.796Z,53.90
2023-03-28T16:53:45.602Z,53.70
2023-03-28T16:56:12.526Z,53.70
2023-03-28T16:58:39.310Z,51.50
2023-03-28T17:01:10.496Z,37.60
2023-03-28T17:03:37.124Z,34.80
2023-03-28T17:06:08.036Z,35.30
2023-03-28T17:08:35.403Z,35.10
2023-03-28T17:11:02.150Z,34.80
2023-03-28T17:13:28.651Z,33.30
2023-03-28T17:15:55.606Z,32.90
2023-03-28T17:18:22.207Z,34.70
2023-03-28T17:20:58.678Z,40.00
2023-03-28T17:23:25.861Z,38.30
2023-03-28T17:25:54.912Z,38.60
2023-03-28T17:28:21.939Z,39.70
2023-03-28T17:30:49.415Z,40.70
2023-03-28T17:33:16.320Z,40.90
2023-03-28T17:35:42.864Z,40.70
2023-03-28T17:38:09.690Z,41.10
2023-03-28T17:40:37.167Z,41.20
2023-03-28T17:43:04.103Z,41.80
2023-03-28T17:45:30.881Z,34.60
2023-03-28T17:47:57.505Z,38.90
2023-03-28T17:50:25.190Z,39.30
2023-03-28T17:52:51.799Z,40.00
2023-03-28T17:55:18.362Z,40.70
2023-03-28T17:57:44.853Z,41.20
2023-03-28T18:00:11.668Z,41.80
2023-03-28T18:02:40.380Z,42.80
2023-03-28T18:05:07.047Z,43.10
2023-03-28T18:07:34.809Z,43.20
2023-03-28T18:10:01.456Z,44.30
2023-03-28T18:12:27.989Z,44.10
2023-03-28T18:14:54.563Z,44.30
2023-03-28T18:17:21.272Z,44.70
2023-03-28T18:19:48.469Z,44.70
2023-03-28T18:22:15.449Z,44.80
2023-03-28T18:24:43.082Z,45.30
2023-03-28T18:27:09.663Z,45.50
2023-03-28T18:29:36.213Z,45.60
2023-03-28T18:32:03.308Z,45.90
2023-03-28T18:34:29.910Z,45.90
2023-03-28T18:36:57.371Z,45.90
2023-03-28T18:39:24.023Z,46.20
2023-03-28T18:41:51.115Z,46.40
2023-03-28T18:44:18.333Z,46.30
2023-03-28T18:46:45.035Z,46.50
2023-03-28T18:49:11.627Z,46.60
2023-03-28T18:51:39.544Z,46.90
2023-03-28T18:54:06.428Z,46.80
2023-03-28T18:56:33.165Z,46.30
2023-03-28T18:58:59.822Z,46.70
2023-03-28T19:01:26.556Z,46.50
2023-03-28T19:03:55.316Z,47.20
2023-03-28T19:06:22.185Z,47.10
2023-03-28T19:08:48.895Z,47.10
2023-03-28T19:11:16.642Z,47.40
2023-03-28T19:13:43.827Z,47.30
2023-03-28T19:16:12.404Z,47.40
2023-03-28T19:18:40.173Z,47.50
2023-03-28T19:21:07.018Z,48.30
2023-03-28T19:23:34.257Z,47.70
2023-03-28T19:26:01.348Z,47.70
2023-03-28T19:28:28.147Z,47.80
2023-03-28T19:30:59.333Z,47.70
2023-03-28T19:33:26.453Z,47.50
2023-03-28T19:35:53.061Z,47.80
2023-03-28T19:38:21.004Z,47.90
2023-03-28T19:40:47.636Z,47.70
2023-03-28T19:43:20.918Z,48.00
2023-03-28T19:45:48.075Z,49.80
2023-03-28T19:48:14.961Z,47.80
2023-03-28T19:50:41.850Z,48.00
2023-03-28T19:53:08.419Z,48.20
2023-03-28T19:55:34.947Z,45.00
2023-03-28T19:58:04.771Z,46.70
2023-03-28T20:00:32.184Z,46.80
2023-03-28T20:02:58.892Z,47.00
2023-03-28T20:05:26.057Z,47.60
2023-03-28T20:07:52.576Z,47.90
2023-03-28T20:10:19.068Z,48.40
2023-03-28T20:12:45.707Z,48.20
2023-03-28T20:15:12.285Z,48.50
2023-03-28T20:17:38.829Z,48.60
2023-03-28T20:23:55.254Z,46.90
2023-03-28T20:26:26.405Z,47.70
2023-03-28T20:28:56.821Z,47.90
2023-03-28T20:31:23.670Z,48.20
2023-03-28T20:33:52.639Z,48.20
2023-03-28T20:36:19.281Z,48.50
2023-03-28T20:38:46.388Z,48.50
2023-03-28T20:41:15.237Z,48.70
2023-03-28T20:43:47.618Z,48.90
2023-03-28T20:46:19.943Z,49.40
2023-03-28T20:48:51.829Z,53.50
2023-03-28T20:51:22.094Z,65.00
2023-03-28T20:53:51.566Z,65.60
2023-03-28T20:56:19.968Z,65.40
2023-03-28T20:58:47.048Z,49.10
2023-03-28T21:01:16.522Z,49.60
2023-03-28T21:03:48.095Z,49.70
2023-03-28T21:06:16.668Z,49.70
2023-03-28T21:08:47.853Z,49.70
2023-03-28T21:11:26.352Z,49.70
2023-03-28T21:13:53.049Z,49.80
2023-03-28T21:16:21.484Z,49.80
2023-03-28T21:18:49.190Z,49.70
2023-03-28T21:21:17.506Z,49.80
2023-03-28T21:23:45.707Z,49.80
2023-03-28T21:26:17.947Z,49.80
2023-03-28T21:28:45.641Z,49.80
2023-03-28T21:31:16.999Z,49.80
2023-03-28T21:33:44.112Z,49.80
2023-03-28T21:36:14.000Z,49.80
2023-03-28T21:38:40.808Z,49.80
2023-03-28T21:41:07.633Z,49.90
2023-03-28T21:43:35.528Z,49.90
2023-03-28T21:46:03.179Z,49.90
2023-03-28T21:48:29.859Z,49.90
2023-03-28T21:51:01.481Z,49.90
2023-03-28T21:53:37.826Z,49.90
2023-03-28T21:56:06.505Z,50.00
2023-03-28T21:58:33.500Z,49.90
2023-03-28T22:01:02.697Z,49.90
2023-03-28T22:03:30.580Z,49.90
2023-03-28T22:05:57.400Z,50.00
2023-03-28T22:08:24.127Z,50.00
2023-03-28T22:10:54.023Z,50.00
2023-03-28T22:13:21.250Z,50.00
2023-03-28T22:15:47.834Z,50.00
2023-03-28T22:18:15.553Z,50.00
2023-03-28T22:20:43.552Z,50.00
2023-03-28T22:23:10.271Z,50.00
2023-03-28T22:25:38.336Z,50.00
2023-03-28T22:28:07.679Z,50.10
2023-03-28T22:30:34.916Z,50.00
2023-03-28T22:33:03.875Z,50.00
2023-03-28T22:35:32.180Z,50.00
2023-03-28T22:37:59.653Z,50.00
2023-03-28T22:40:26.246Z,50.10
2023-03-28T22:42:54.089Z,50.10
2023-03-28T22:45:26.327Z,50.10
2023-03-28T22:47:53.458Z,50.10
2023-03-28T22:50:22.340Z,50.10
2023-03-28T22:52:52.879Z,50.10
2023-03-28T22:55:22.231Z,50.10
2023-03-28T22:57:51.613Z,50.10
2023-03-28T23:00:21.524Z,50.10
2023-03-28T23:02:48.794Z,50.10
2023-03-28T23:05:15.528Z,50.10
2023-03-28T23:07:42.217Z,50.10
2023-03-28T23:10:14.200Z,50.10
2023-03-28T23:12:42.428Z,50.10
2023-03-28T23:15:09.780Z,50.10
2023-03-28T23:17:36.662Z,50.20
2023-03-28T23:20:09.991Z,50.20
2023-03-28T23:22:37.024Z,50.10
2023-03-28T23:25:03.927Z,50.10
2023-03-28T23:27:30.783Z,50.20
2023-03-28T23:29:57.461Z,50.10
2023-03-28T23:32:24.264Z,50.20
2023-03-28T23:34:53.151Z,50.20
2023-03-28T23:37:20.373Z,50.20
2023-03-28T23:39:47.214Z,50.20
2023-03-28T23:42:13.801Z,50.20
2023-03-28T23:44:40.548Z,50.10
2023-03-28T23:47:07.832Z,50.20
2023-03-28T23:49:34.475Z,50.20
2023-03-28T23:52:01.474Z,50.20
2023-03-28T23:54:29.877Z,50.20
2023-03-28T23:56:57.549Z,50.20
2023-03-28T23:59:25.131Z,50.20
